Time,TemperatureF,DewpointF,PressureIn,WindDirection,WindDirectionDegrees,WindSpeedMPH,WindSpeedGustMPH,Humidity,HourlyPrecipIn,Conditions,Clouds,dailyrainin,SoftwareType,DateUTC
2013-03-07 00:01:00,13.0,8.3,30.37,South,175,0.0,0.0,81,0.00,,,0.00,WUHU216DAVISVP2,2013-03-07 06:01:00,
2013-03-07 00:06:00,12.9,8.2,30.37,South,175,0.0,0.0,81,0.00,,,0.00,WUHU216DAVISVP2,2013-03-07 06:06:00,
2013-03-07 00:11:00,12.8,8.1,30.37,South,175,0.0,0.0,81,0.00,,,0.00,WUHU216DAVISVP2,2013-03-07 06:11:00,
2013-03-07 00:16:00,12.8,8.3,30.37,South,175,0.0,0.0,82,0.00,,,0.00,WUHU216DAVISVP2,2013-03-07 06:16:00,
2013-03-07 00:21:00,12.7,8.2,30.36,South,175,0.0,0.0,82,0.00,,,0.00,WUHU216DAVISVP2,2013-03-07 06:21:00,
2013-03-07 00:26:00,12.7,8.2,30.36,South,175,0.0,0.0,82,0.00,,,0.00,WUHU216DAVISVP2,2013-03-07 06:26:00,
2013-03-07 00:31:00,12.6,8.1,30.36,South,175,0.0,0.0,82,0.00,,,0.00,WUHU216DAVISVP2,2013-03-07 06:31:00,
2013-03-07 00:36:00,12.8,8.3,30.37,South,175,0.0,0.0,82,0.00,,,0.00,WUHU216DAVISVP2,2013-03-07 06:36:00,
2013-03-07 00:41:00,12.7,8.5,30.37,South,175,0.0,0.0,83,0.00,,,0.00,WUHU216DAVISVP2,2013-03-07 06:41:00,
2013-03-07 00:46:00,12.7,8.5,30.37,South,175,0.0,0.0,83,0.00,,,0.00,WUHU216DAVISVP2,2013-03-07 06:46:00,
2013-03-07 00:51:00,12.7,8.5,30.37,South,175,0.0,0.0,83,0.00,,,0.00,WUHU216DAVISVP2,2013-03-07 06:51:00,
2013-03-07 00:56:00,12.6,8.4,30.37,South,173,0.0,0.0,83,0.00,,,0.00,WUHU216DAVISVP2,2013-03-07 06:56:00,
2013-03-07 01:01:00,12.4,8.2,30.37,South,175,0.0,0.0,83,0.00,,,0.00,WUHU216DAVISVP2,2013-03-07 07:01:00,
2013-03-07 01:06:00,12.4,8.2,30.37,South,175,0.0,0.0,83,0.00,,,0.00,WUHU216DAVISVP2,2013-03-07 07:06:00,
2013-03-07 01:11:00,12.4,8.2,30.37,South,175,0.0,0.0,83,0.00,,,0.00,WUHU216DAVISVP2,2013-03-07 07:11:00,
2013-03-07 01:16:00,12.5,8.3,30.37,South,175,0.0,0.0,83,0.00,,,0.00,WUHU216DAVISVP2,2013-03-07 07:16:00,
2013-03-07 01:21:00,12.6,8.4,30.37,South,175,0.0,0.0,83,0.00,,,0.00,WUHU216DAVISVP2,2013-03-07 07:21:00,
2013-03-07 01:26:00,12.7,8.8,30.38,South,175,0.0,0.0,84,0.00,,,0.00,WUHU216DAVISVP2,2013-03-07 07:26:00,
2013-03-07 01:31:00,12.7,8.8,30.38,South,175,0.0,0.0,84,0.00,,,0.00,WUHU216DAVISVP2,2013-03-07 07:31:00,
2013-03-07 01:36:00,12.7,8.8,30.38,South,175,0.0,3.0,84,0.00,,,0.00,WUHU216DAVISVP2,2013-03-07 07:36:00,
2013-03-07 01:41:00,12.7,8.8,30.38,SSE,149,0.0,3.0,84,0.00,,,0.00,WUHU216DAVISVP2,2013-03-07 07:41:00,
2013-03-07 01:46:00,12.7,8.8,30.38,SSE,149,0.0,3.0,84,0.00,,,0.00,WUHU216DAVISVP2,2013-03-07 07:46:00,
2013-03-07 01:51:00,12.7,8.8,30.38,SSE,150,0.0,3.0,84,0.00,,,0.00,WUHU216DAVISVP2,2013-03-07 07:51:00,
2013-03-07 01:56:00,12.6,8.7,30.38,SSE,153,0.0,3.0,84,0.00,,,0.00,WUHU216DAVISVP2,2013-03-07 07:56:00,
2013-03-07 02:01:00,12.5,8.6,30.38,SSE,153,0.0,4.0,84,0.00,,,0.00,WUHU216DAVISVP2,2013-03-07 08:01:00,
2013-03-07 02:06:00,12.3,8.1,30.37,SSE,153,0.0,4.0,83,0.00,,,0.00,WUHU216DAVISVP2,2013-03-07 08:06:00,
2013-03-07 02:11:00,12.2,8.0,30.37,SSE,153,0.0,3.0,83,0.00,,,0.00,WUHU216DAVISVP2,2013-03-07 08:11:00,
2013-03-07 02:16:00,11.9,7.7,30.37,SSE,153,0.0,3.0,83,0.00,,,0.00,WUHU216DAVISVP2,2013-03-07 08:16:00,
2013-03-07 02:21:00,11.8,7.6,30.36,SSE,153,0.0,1.0,83,0.00,,,0.00,WUHU216DAVISVP2,2013-03-07 08:21:00,
2013-03-07 02:26:00,11.8,7.6,30.36,SSE,153,0.0,2.0,83,0.00,,,0.00,WUHU216DAVISVP2,2013-03-07 08:26:00,
2013-03-07 02:31:00,11.9,8.0,30.36,SSE,153,0.0,2.0,84,0.00,,,0.00,WUHU216DAVISVP2,2013-03-07 08:31:00,
2013-03-07 02:37:00,12.0,8.1,30.36,SSE,153,0.0,0.0,84,0.00,,,0.00,WUHU216DAVISVP2,2013-03-07 08:37:00,
2013-03-07 02:42:00,12.1,8.2,30.36,SSE,153,0.0,0.0,84,0.00,,,0.00,WUHU216DAVISVP2,2013-03-07 08:42:00,
2013-03-07 02:47:00,12.2,8.3,30.36,SSE,153,0.0,2.0,84,0.00,,,0.00,WUHU216DAVISVP2,2013-03-07 08:47:00,
2013-03-07 02:52:00,12.1,8.2,30.35,SSE,153,1.0,3.0,84,0.00,,,0.00,WUHU216DAVISVP2,2013-03-07 08:52:00,
2013-03-07 02:57:00,12.2,8.3,30.34,SSE,153,2.0,3.0,84,0.00,,,0.00,WUHU216DAVISVP2,2013-03-07 08:57:00,
2013-03-07 03:02:00,12.2,8.3,30.34,South,171,0.0,4.0,84,0.00,,,0.00,WUHU216DAVISVP2,2013-03-07 09:02:00,
2013-03-07 03:07:00,12.3,8.4,30.34,South,171,1.0,4.0,84,0.00,,,0.00,WUHU216DAVISVP2,2013-03-07 09:07:00,
2013-03-07 03:12:00,12.3,8.4,30.34,SSE,167,1.0,4.0,84,0.00,,,0.00,WUHU216DAVISVP2,2013-03-07 09:12:00,
2013-03-07 03:17:00,12.3,8.4,30.33,SSE,157,1.0,4.0,84,0.00,,,0.00,WUHU216DAVISVP2,2013-03-07 09:17:00,
2013-03-07 03:22:00,12.5,8.6,30.33,SSE,161,1.0,4.0,84,0.00,,,0.00,WUHU216DAVISVP2,2013-03-07 09:22:00,
2013-03-07 03:27:00,12.5,8.6,30.34,SSE,157,1.0,5.0,84,0.00,,,0.00,WUHU216DAVISVP2,2013-03-07 09:27:00,
2013-03-07 03:32:00,12.5,8.6,30.33,SSE,156,0.0,5.0,84,0.00,,,0.00,WUHU216DAVISVP2,2013-03-07 09:32:00,
2013-03-07 03:37:00,12.5,8.6,30.34,SSE,156,0.0,2.0,84,0.00,,,0.00,WUHU216DAVISVP2,2013-03-07 09:37:00,
2013-03-07 03:42:00,12.3,8.4,30.33,SSE,156,0.0,2.0,84,0.00,,,0.00,WUHU216DAVISVP2,2013-03-07 09:42:00,
2013-03-07 03:47:00,12.3,8.4,30.33,SE,135,2.0,4.0,84,0.00,,,0.00,WUHU216DAVISVP2,2013-03-07 09:47:00,
2013-03-07 03:52:00,12.4,8.5,30.33,SE,134,0.0,4.0,84,0.00,,,0.00,WUHU216DAVISVP2,2013-03-07 09:52:00,
2013-03-07 03:57:00,12.4,8.5,30.33,SE,135,0.0,3.0,84,0.00,,,0.00,WUHU216DAVISVP2,2013-03-07 09:57:00,
2013-03-07 04:02:00,12.4,8.5,30.33,SE,145,0.0,9.0,84,0.00,,,0.00,WUHU216DAVISVP2,2013-03-07 10:02:00,
2013-03-07 04:07:00,12.5,8.6,30.33,South,170,1.0,9.0,84,0.00,,,0.00,WUHU216DAVISVP2,2013-03-07 10:07:00,
2013-03-07 04:12:00,12.5,8.6,30.32,South,188,0.0,5.0,84,0.00,,,0.00,WUHU216DAVISVP2,2013-03-07 10:12:00,
2013-03-07 04:17:00,12.5,8.3,30.33,SSE,153,0.0,5.0,83,0.00,,,0.00,WUHU216DAVISVP2,2013-03-07 10:17:00,
2013-03-07 04:22:00,12.5,8.3,30.33,SSE,167,0.0,7.0,83,0.00,,,0.00,WUHU216DAVISVP2,2013-03-07 10:22:00,
2013-03-07 04:27:00,12.5,8.3,30.32,SSE,167,0.0,7.0,83,0.00,,,0.00,WUHU216DAVISVP2,2013-03-07 10:27:00,
2013-03-07 04:32:00,12.5,8.3,30.32,SSE,167,0.0,4.0,83,0.00,,,0.00,WUHU216DAVISVP2,2013-03-07 10:32:00,
2013-03-07 04:37:00,12.5,8.3,30.32,SSE,159,0.0,4.0,83,0.00,,,0.00,WUHU216DAVISVP2,2013-03-07 10:37:00,
2013-03-07 04:42:00,12.5,8.6,30.32,SE,142,0.0,5.0,84,0.00,,,0.00,WUHU216DAVISVP2,2013-03-07 10:42:00,
2013-03-07 04:47:00,12.6,8.7,30.31,SSE,160,5.0,11.0,84,0.00,,,0.00,WUHU216DAVISVP2,2013-03-07 10:47:00,
2013-03-07 04:52:00,12.7,8.8,30.31,SSE,164,0.0,11.0,84,0.00,,,0.00,WUHU216DAVISVP2,2013-03-07 10:52:00,
2013-03-07 04:57:00,12.7,8.8,30.31,SSE,154,5.0,6.0,84,0.00,,,0.00,WUHU216DAVISVP2,2013-03-07 10:57:00,
2013-03-07 05:02:00,12.8,8.9,30.31,South,173,5.0,10.0,84,0.00,,,0.00,WUHU216DAVISVP2,2013-03-07 11:02:00,
2013-03-07 05:07:00,12.9,9.0,30.31,SSE,165,0.0,10.0,84,0.00,,,0.00,WUHU216DAVISVP2,2013-03-07 11:07:00,
2013-03-07 05:12:00,13.0,9.1,30.31,SSE,155,0.0,9.0,84,0.00,,,0.00,WUHU216DAVISVP2,2013-03-07 11:12:00,
2013-03-07 05:18:00,13.0,9.1,30.31,South,169,3.0,6.0,84,0.00,,,0.00,WUHU216DAVISVP2,2013-03-07 11:18:00,
2013-03-07 05:23:00,13.0,9.1,30.31,SSE,157,0.0,5.0,84,0.00,,,0.00,WUHU216DAVISVP2,2013-03-07 11:23:00,
2013-03-07 05:28:00,13.0,9.1,30.32,SSE,157,0.0,5.0,84,0.00,,,0.00,WUHU216DAVISVP2,2013-03-07 11:28:00,
2013-03-07 05:33:00,12.8,8.9,30.31,SSE,157,0.0,4.0,84,0.00,,,0.00,WUHU216DAVISVP2,2013-03-07 11:33:00,
2013-03-07 05:38:00,12.7,8.8,30.32,South,173,3.0,6.0,84,0.00,,,0.00,WUHU216DAVISVP2,2013-03-07 11:38:00,
2013-03-07 05:43:00,12.6,8.7,30.32,SSE,156,2.0,6.0,84,0.00,,,0.00,WUHU216DAVISVP2,2013-03-07 11:43:00,
2013-03-07 05:48:00,12.7,9.0,30.32,SSE,160,2.0,9.0,85,0.00,,,0.00,WUHU216DAVISVP2,2013-03-07 11:48:00,
2013-03-07 05:53:00,12.8,8.9,30.32,SSE,158,5.0,9.0,84,0.00,,,0.00,WUHU216DAVISVP2,2013-03-07 11:53:00,
2013-03-07 05:58:00,12.8,9.1,30.32,South,171,0.0,6.0,85,0.00,,,0.00,WUHU216DAVISVP2,2013-03-07 11:58:00,
2013-03-07 06:03:00,13.0,9.3,30.32,South,177,3.0,6.0,85,0.00,,,0.00,WUHU216DAVISVP2,2013-03-07 12:03:00,
2013-03-07 06:08:00,13.1,9.4,30.32,SSE,159,0.0,7.0,85,0.00,,,0.00,WUHU216DAVISVP2,2013-03-07 12:08:00,
2013-03-07 06:13:00,13.2,9.5,30.32,SSE,165,1.0,7.0,85,0.00,,,0.00,WUHU216DAVISVP2,2013-03-07 12:13:00,
2013-03-07 06:18:00,13.3,9.6,30.32,SSE,164,2.0,10.0,85,0.00,,,0.00,WUHU216DAVISVP2,2013-03-07 12:18:00,
2013-03-07 06:23:00,13.4,9.7,30.32,ESE,119,1.0,10.0,85,0.00,,,0.00,WUHU216DAVISVP2,2013-03-07 12:23:00,
2013-03-07 06:28:00,13.4,9.7,30.32,SSE,161,0.0,9.0,85,0.00,,,0.00,WUHU216DAVISVP2,2013-03-07 12:28:00,
2013-03-07 06:33:00,13.4,9.7,30.32,SSE,161,0.0,7.0,85,0.00,,,0.00,WUHU216DAVISVP2,2013-03-07 12:33:00,
2013-03-07 06:38:00,13.4,9.7,30.32,SSW,202,3.0,9.0,85,0.00,,,0.00,WUHU216DAVISVP2,2013-03-07 12:38:00,
2013-03-07 06:43:00,13.4,9.4,30.32,SE,145,1.0,9.0,84,0.00,,,0.00,WUHU216DAVISVP2,2013-03-07 12:43:00,
2013-03-07 06:48:00,13.5,9.5,30.32,SE,140,0.0,7.0,84,0.00,,,0.00,WUHU216DAVISVP2,2013-03-07 12:48:00,
2013-03-07 06:53:00,13.5,9.5,30.32,SE,130,4.0,11.0,84,0.00,,,0.00,WUHU216DAVISVP2,2013-03-07 12:53:00,
2013-03-07 06:58:00,13.6,9.6,30.32,South,178,0.0,12.0,84,0.00,,,0.00,WUHU216DAVISVP2,2013-03-07 12:58:00,
2013-03-07 07:03:00,13.6,9.6,30.32,South,173,0.0,12.0,84,0.00,,,0.00,WUHU216DAVISVP2,2013-03-07 13:03:00,
2013-03-07 07:08:00,13.6,9.6,30.32,SSE,159,3.0,6.0,84,0.00,,,0.00,WUHU216DAVISVP2,2013-03-07 13:08:00,
2013-03-07 07:13:00,13.6,9.6,30.32,SSE,157,4.0,10.0,84,0.00,,,0.00,WUHU216DAVISVP2,2013-03-07 13:13:00,
2013-03-07 07:18:00,13.6,9.6,30.32,South,171,0.0,10.0,84,0.00,,,0.00,WUHU216DAVISVP2,2013-03-07 13:18:00,
2013-03-07 07:23:00,13.7,9.7,30.32,SSE,167,1.0,9.0,84,0.00,,,0.00,WUHU216DAVISVP2,2013-03-07 13:23:00,
2013-03-07 07:28:00,13.7,9.7,30.32,SSE,164,0.0,9.0,84,0.00,,,0.00,WUHU216DAVISVP2,2013-03-07 13:28:00,
2013-03-07 07:33:00,13.8,9.8,30.32,SSE,155,1.0,10.0,84,0.00,,,0.00,WUHU216DAVISVP2,2013-03-07 13:33:00,
2013-03-07 07:38:00,13.9,9.9,30.32,South,169,0.0,10.0,84,0.00,,,0.00,WUHU216DAVISVP2,2013-03-07 13:38:00,
2013-03-07 07:43:00,14.0,10.0,30.32,South,170,2.0,9.0,84,0.00,,,0.00,WUHU216DAVISVP2,2013-03-07 13:43:00,
2013-03-07 07:48:00,14.0,10.0,30.32,SSE,160,0.0,12.0,84,0.00,,,0.00,WUHU216DAVISVP2,2013-03-07 13:48:00,
2013-03-07 07:53:00,14.1,10.1,30.33,South,176,0.0,12.0,84,0.00,,,0.00,WUHU216DAVISVP2,2013-03-07 13:53:00,
2013-03-07 07:58:00,14.1,10.1,30.32,SSE,164,0.0,6.0,84,0.00,,,0.00,WUHU216DAVISVP2,2013-03-07 13:58:00,
2013-03-07 08:04:00,14.1,10.1,30.33,South,183,2.0,10.0,84,0.00,,,0.00,WUHU216DAVISVP2,2013-03-07 14:04:00,
2013-03-07 08:09:00,14.0,9.8,30.33,SE,128,4.0,10.0,83,0.00,,,0.00,WUHU216DAVISVP2,2013-03-07 14:09:00,
2013-03-07 08:14:00,14.1,10.1,30.33,South,169,0.0,7.0,84,0.00,,,0.00,WUHU216DAVISVP2,2013-03-07 14:14:00,
2013-03-07 08:19:00,14.2,10.0,30.33,SSE,159,0.0,8.0,83,0.00,,,0.00,WUHU216DAVISVP2,2013-03-07 14:19:00,
2013-03-07 08:24:00,14.3,10.1,30.33,South,186,1.0,8.0,83,0.00,,,0.00,WUHU216DAVISVP2,2013-03-07 14:24:00,
2013-03-07 08:29:00,14.3,10.1,30.33,South,174,0.0,9.0,83,0.00,,,0.00,WUHU216DAVISVP2,2013-03-07 14:29:00,
2013-03-07 08:34:00,14.4,10.2,30.33,SE,138,0.0,9.0,83,0.00,,,0.00,WUHU216DAVISVP2,2013-03-07 14:34:00,
2013-03-07 08:39:00,14.5,10.3,30.32,SSE,160,2.0,7.0,83,0.00,,,0.00,WUHU216DAVISVP2,2013-03-07 14:39:00,
2013-03-07 08:44:00,14.5,10.0,30.32,South,172,2.0,9.0,82,0.00,,,0.00,WUHU216DAVISVP2,2013-03-07 14:44:00,
2013-03-07 08:49:00,14.5,10.0,30.31,SSE,163,3.0,9.0,82,0.00,,,0.00,WUHU216DAVISVP2,2013-03-07 14:49:00,
2013-03-07 08:54:00,14.6,10.1,30.32,SSE,155,0.0,9.0,82,0.00,,,0.00,WUHU216DAVISVP2,2013-03-07 14:54:00,
2013-03-07 08:59:00,14.9,10.4,30.32,South,171,0.0,9.0,82,0.00,,,0.00,WUHU216DAVISVP2,2013-03-07 14:59:00,
2013-03-07 09:04:00,15.3,10.8,30.32,SSE,157,0.0,8.0,82,0.00,,,0.00,WUHU216DAVISVP2,2013-03-07 15:04:00,
2013-03-07 09:09:00,15.7,10.9,30.32,SSE,162,2.0,9.0,81,0.00,,,0.00,WUHU216DAVISVP2,2013-03-07 15:09:00,
2013-03-07 09:14:00,15.8,11.0,30.32,SSE,153,5.0,10.0,81,0.00,,,0.00,WUHU216DAVISVP2,2013-03-07 15:14:00,
2013-03-07 09:19:00,16.0,11.2,30.32,SSE,159,0.0,10.0,81,0.00,,,0.00,WUHU216DAVISVP2,2013-03-07 15:19:00,
2013-03-07 09:24:00,16.3,11.5,30.32,SSE,157,0.0,9.0,81,0.00,,,0.00,WUHU216DAVISVP2,2013-03-07 15:24:00,
2013-03-07 09:29:00,16.7,11.9,30.32,ESE,123,0.0,9.0,81,0.00,,,0.00,WUHU216DAVISVP2,2013-03-07 15:29:00,
2013-03-07 09:34:00,17.0,11.9,30.32,South,172,4.0,12.0,80,0.00,,,0.00,WUHU216DAVISVP2,2013-03-07 15:34:00,
2013-03-07 09:39:00,17.4,12.3,30.32,SSE,154,4.0,14.0,80,0.00,,,0.00,WUHU216DAVISVP2,2013-03-07 15:39:00,
2013-03-07 09:44:00,17.5,12.4,30.32,SE,144,10.0,18.0,80,0.00,,,0.00,WUHU216DAVISVP2,2013-03-07 15:44:00,
2013-03-07 09:49:00,17.7,12.6,30.32,South,175,3.0,18.0,80,0.00,,,0.00,WUHU216DAVISVP2,2013-03-07 15:49:00,
2013-03-07 09:54:00,18.0,12.9,30.31,SSE,167,2.0,16.0,80,0.00,,,0.00,WUHU216DAVISVP2,2013-03-07 15:54:00,
2013-03-07 09:59:00,18.2,13.1,30.31,SSE,168,2.0,18.0,80,0.00,,,0.00,WUHU216DAVISVP2,2013-03-07 15:59:00,
2013-03-07 10:04:00,18.6,13.5,30.31,SSE,165,6.0,18.0,80,0.00,,,0.00,WUHU216DAVISVP2,2013-03-07 16:04:00,
2013-03-07 10:09:00,18.6,13.2,30.30,South,171,2.0,16.0,79,0.00,,,0.00,WUHU216DAVISVP2,2013-03-07 16:09:00,
2013-03-07 10:14:00,18.6,13.5,30.31,South,171,11.0,20.0,80,0.00,,,0.00,WUHU216DAVISVP2,2013-03-07 16:14:00,
2013-03-07 10:19:00,18.6,13.5,30.31,SSE,161,4.0,20.0,80,0.00,,,0.00,WUHU216DAVISVP2,2013-03-07 16:19:00,
2013-03-07 10:24:00,18.9,13.7,30.31,SSE,153,10.0,14.0,80,0.00,,,0.00,WUHU216DAVISVP2,2013-03-07 16:24:00,
2013-03-07 10:29:00,18.9,13.7,30.31,South,178,10.0,15.0,80,0.00,,,0.00,WUHU216DAVISVP2,2013-03-07 16:29:00,
2013-03-07 10:34:00,19.2,14.0,30.31,SE,144,11.0,15.0,80,0.00,,,0.00,WUHU216DAVISVP2,2013-03-07 16:34:00,
2013-03-07 10:39:00,19.3,14.1,30.30,SSE,148,0.0,15.0,80,0.00,,,0.00,WUHU216DAVISVP2,2013-03-07 16:39:00,
2013-03-07 10:44:00,19.7,14.5,30.30,SE,145,3.0,15.0,80,0.00,,,0.00,WUHU216DAVISVP2,2013-03-07 16:44:00,
2013-03-07 10:49:00,20.0,14.8,30.30,SSE,167,5.0,17.0,80,0.00,,,0.00,WUHU216DAVISVP2,2013-03-07 16:49:00,
2013-03-07 10:54:00,20.4,14.9,30.30,SE,146,4.0,17.0,79,0.00,,,0.00,WUHU216DAVISVP2,2013-03-07 16:54:00,
2013-03-07 10:59:00,20.6,15.1,30.30,SSE,149,2.0,14.0,79,0.00,,,0.00,WUHU216DAVISVP2,2013-03-07 16:59:00,
2013-03-07 11:05:00,21.0,15.2,30.30,SSE,150,0.0,14.0,78,0.00,,,0.00,WUHU216DAVISVP2,2013-03-07 17:05:00,
2013-03-07 11:10:00,21.3,15.5,30.30,SSE,150,0.0,15.0,78,0.00,,,0.00,WUHU216DAVISVP2,2013-03-07 17:10:00,
2013-03-07 11:15:00,21.5,15.7,30.30,SSE,164,10.0,15.0,78,0.00,,,0.00,WUHU216DAVISVP2,2013-03-07 17:15:00,
2013-03-07 11:20:00,21.6,15.8,30.30,South,176,2.0,13.0,78,0.00,,,0.00,WUHU216DAVISVP2,2013-03-07 17:20:00,
2013-03-07 11:25:00,21.7,15.9,30.30,SE,141,12.0,16.0,78,0.00,,,0.00,WUHU216DAVISVP2,2013-03-07 17:25:00,
2013-03-07 11:30:00,22.0,16.2,30.30,ESE,123,1.0,17.0,78,0.00,,,0.00,WUHU216DAVISVP2,2013-03-07 17:30:00,
2013-03-07 11:35:00,22.4,16.6,30.30,ESE,120,1.0,17.0,78,0.00,,,0.00,WUHU216DAVISVP2,2013-03-07 17:35:00,
2013-03-07 11:40:00,22.9,16.8,30.30,SSE,156,5.0,13.0,77,0.00,,,0.00,WUHU216DAVISVP2,2013-03-07 17:40:00,
2013-03-07 11:45:00,23.0,16.6,30.30,SSE,148,5.0,15.0,76,0.00,,,0.00,WUHU216DAVISVP2,2013-03-07 17:45:00,
2013-03-07 11:50:00,23.4,17.3,30.30,SSE,148,0.0,17.0,77,0.00,,,0.00,WUHU216DAVISVP2,2013-03-07 17:50:00,
2013-03-07 11:55:00,23.5,17.1,30.30,SE,132,9.0,17.0,76,0.00,,,0.00,WUHU216DAVISVP2,2013-03-07 17:55:00,
2013-03-07 12:00:00,23.9,17.5,30.30,SSE,166,7.0,16.0,76,0.00,,,0.00,WUHU216DAVISVP2,2013-03-07 18:00:00,
2013-03-07 12:05:00,24.4,17.6,30.30,South,171,6.0,18.0,75,0.00,,,0.00,WUHU216DAVISVP2,2013-03-07 18:05:00,
2013-03-07 12:10:00,24.4,17.6,30.30,South,187,4.0,18.0,75,0.00,,,0.00,WUHU216DAVISVP2,2013-03-07 18:10:00,
2013-03-07 12:15:00,24.6,17.8,30.30,SSE,161,9.0,17.0,75,0.00,,,0.00,WUHU216DAVISVP2,2013-03-07 18:15:00,
2013-03-07 12:20:00,24.6,17.8,30.29,SSE,152,0.0,19.0,75,0.00,,,0.00,WUHU216DAVISVP2,2013-03-07 18:20:00,
2013-03-07 12:25:00,24.8,18.0,30.29,SSE,149,10.0,19.0,75,0.00,,,0.00,WUHU216DAVISVP2,2013-03-07 18:25:00,
2013-03-07 12:30:00,25.0,18.2,30.29,South,184,4.0,22.0,75,0.00,,,0.00,WUHU216DAVISVP2,2013-03-07 18:30:00,
2013-03-07 12:35:00,25.5,18.7,30.29,South,178,2.0,22.0,75,0.00,,,0.00,WUHU216DAVISVP2,2013-03-07 18:35:00,
2013-03-07 12:40:00,25.8,18.7,30.28,WSW,241,7.0,25.0,74,0.00,,,0.00,WUHU216DAVISVP2,2013-03-07 18:40:00,
2013-03-07 12:45:00,26.1,19.0,30.28,South,171,0.0,25.0,74,0.00,,,0.00,WUHU216DAVISVP2,2013-03-07 18:45:00,
2013-03-07 12:51:00,26.4,19.3,30.28,SSE,164,4.0,16.0,74,0.00,,,0.00,WUHU216DAVISVP2,2013-03-07 18:51:00,
2013-03-07 12:56:00,26.2,18.8,30.28,SE,125,4.0,17.0,73,0.00,,,0.00,WUHU216DAVISVP2,2013-03-07 18:56:00,
2013-03-07 13:01:00,26.5,19.4,30.27,SSW,192,4.0,17.0,74,0.00,,,0.00,WUHU216DAVISVP2,2013-03-07 19:01:00,
2013-03-07 13:06:00,26.7,19.3,30.27,ESE,121,2.0,15.0,73,0.00,,,0.00,WUHU216DAVISVP2,2013-03-07 19:06:00,
2013-03-07 13:11:00,26.9,19.4,30.27,SSW,194,3.0,16.0,73,0.00,,,0.00,WUHU216DAVISVP2,2013-03-07 19:11:00,
2013-03-07 13:16:00,26.8,19.3,30.27,SE,143,0.0,21.0,73,0.00,,,0.00,WUHU216DAVISVP2,2013-03-07 19:16:00,
2013-03-07 13:21:00,27.2,20.0,30.27,South,172,0.0,21.0,74,0.00,,,0.00,WUHU216DAVISVP2,2013-03-07 19:21:00,
2013-03-07 13:26:00,27.3,19.5,30.27,SSW,206,1.0,16.0,72,0.00,,,0.00,WUHU216DAVISVP2,2013-03-07 19:26:00,
2013-03-07 13:31:00,27.2,19.7,30.27,SSW,205,4.0,16.0,73,0.00,,,0.00,WUHU216DAVISVP2,2013-03-07 19:31:00,
2013-03-07 13:36:00,27.6,19.8,30.26,South,186,3.0,14.0,72,0.00,,,0.00,WUHU216DAVISVP2,2013-03-07 19:36:00,
2013-03-07 13:41:00,27.4,19.6,30.26,ESE,122,1.0,13.0,72,0.00,,,0.00,WUHU216DAVISVP2,2013-03-07 19:41:00,
2013-03-07 13:46:00,27.5,19.7,30.25,SSE,147,6.0,16.0,72,0.00,,,0.00,WUHU216DAVISVP2,2013-03-07 19:46:00,
2013-03-07 13:51:00,27.8,20.0,30.25,East,99,4.0,16.0,72,0.00,,,0.00,WUHU216DAVISVP2,2013-03-07 19:51:00,
2013-03-07 13:56:00,27.8,20.0,30.24,SE,138,1.0,15.0,72,0.00,,,0.00,WUHU216DAVISVP2,2013-03-07 19:56:00,
2013-03-07 14:01:00,27.7,19.9,30.24,South,183,1.0,19.0,72,0.00,,,0.00,WUHU216DAVISVP2,2013-03-07 20:01:00,
2013-03-07 14:06:00,27.7,19.9,30.24,SSE,153,9.0,17.0,72,0.00,,,0.00,WUHU216DAVISVP2,2013-03-07 20:06:00,
2013-03-07 14:11:00,27.7,19.9,30.24,South,171,1.0,17.0,72,0.00,,,0.00,WUHU216DAVISVP2,2013-03-07 20:11:00,
2013-03-07 14:16:00,27.9,20.1,30.23,SSE,154,9.0,18.0,72,0.00,,,0.00,WUHU216DAVISVP2,2013-03-07 20:16:00,
2013-03-07 14:21:00,28.1,20.3,30.23,South,175,6.0,18.0,72,0.00,,,0.00,WUHU216DAVISVP2,2013-03-07 20:21:00,
2013-03-07 14:26:00,27.9,19.8,30.23,SSE,148,2.0,17.0,71,0.00,,,0.00,WUHU216DAVISVP2,2013-03-07 20:26:00,
2013-03-07 14:31:00,28.0,20.2,30.23,SE,145,0.0,16.0,72,0.00,,,0.00,WUHU216DAVISVP2,2013-03-07 20:31:00,
2013-03-07 14:36:00,28.1,20.0,30.23,South,187,5.0,16.0,71,0.00,,,0.00,WUHU216DAVISVP2,2013-03-07 20:36:00,
2013-03-07 14:41:00,28.3,20.2,30.23,ESE,118,4.0,16.0,71,0.00,,,0.00,WUHU216DAVISVP2,2013-03-07 20:41:00,
2013-03-07 14:46:00,28.4,20.2,30.23,SSW,194,3.0,14.0,71,0.00,,,0.00,WUHU216DAVISVP2,2013-03-07 20:46:00,
2013-03-07 14:51:00,28.7,20.5,30.23,SSE,163,0.0,13.0,71,0.00,,,0.00,WUHU216DAVISVP2,2013-03-07 20:51:00,
2013-03-07 14:56:00,28.8,20.3,30.23,SSE,157,2.0,13.0,70,0.00,,,0.00,WUHU216DAVISVP2,2013-03-07 20:56:00,
2013-03-07 15:01:00,28.9,20.7,30.23,SSE,155,0.0,14.0,71,0.00,,,0.00,WUHU216DAVISVP2,2013-03-07 21:01:00,
2013-03-07 15:06:00,29.3,20.8,30.23,SSE,163,0.0,14.0,70,0.00,,,0.00,WUHU216DAVISVP2,2013-03-07 21:06:00,
2013-03-07 15:11:00,29.6,20.7,30.22,SE,134,2.0,13.0,69,0.00,,,0.00,WUHU216DAVISVP2,2013-03-07 21:11:00,
2013-03-07 15:16:00,29.7,21.2,30.22,SSE,156,0.0,13.0,70,0.00,,,0.00,WUHU216DAVISVP2,2013-03-07 21:16:00,
2013-03-07 15:21:00,29.9,21.4,30.22,ESE,114,1.0,10.0,70,0.00,,,0.00,WUHU216DAVISVP2,2013-03-07 21:21:00,
2013-03-07 15:26:00,29.9,20.7,30.22,SE,136,0.0,12.0,68,0.00,,,0.00,WUHU216DAVISVP2,2013-03-07 21:26:00,
2013-03-07 15:31:00,29.9,21.0,30.22,SSE,153,4.0,14.0,69,0.00,,,0.00,WUHU216DAVISVP2,2013-03-07 21:31:00,
2013-03-07 15:36:00,29.5,20.3,30.21,ESE,111,4.0,14.0,68,0.00,,,0.00,WUHU216DAVISVP2,2013-03-07 21:36:00,
2013-03-07 15:41:00,29.4,20.5,30.21,ESE,113,2.0,12.0,69,0.00,,,0.00,WUHU216DAVISVP2,2013-03-07 21:41:00,
2013-03-07 15:46:00,29.6,20.4,30.21,ESE,122,0.0,9.0,68,0.00,,,0.00,WUHU216DAVISVP2,2013-03-07 21:46:00,
2013-03-07 15:51:00,29.7,20.1,30.20,SE,126,0.0,10.0,67,0.00,,,0.00,WUHU216DAVISVP2,2013-03-07 21:51:00,
2013-03-07 15:56:00,29.6,20.0,30.21,SE,142,1.0,10.0,67,0.00,,,0.00,WUHU216DAVISVP2,2013-03-07 21:56:00,
2013-03-07 16:01:00,29.6,20.0,30.21,SSE,147,2.0,9.0,67,0.00,,,0.00,WUHU216DAVISVP2,2013-03-07 22:01:00,
2013-03-07 16:06:00,29.9,20.0,30.23,South,171,2.0,9.0,66,0.00,,,0.00,WUHU216DAVISVP2,2013-03-07 22:06:00,
2013-03-07 16:11:00,30.0,20.1,30.23,South,173,0.0,11.0,66,0.00,,,0.00,WUHU216DAVISVP2,2013-03-07 22:11:00,
2013-03-07 16:16:00,29.9,20.3,30.24,South,169,6.0,11.0,67,0.00,,,0.00,WUHU216DAVISVP2,2013-03-07 22:16:00,
2013-03-07 16:21:00,29.9,20.0,30.23,SSE,161,3.0,15.0,66,0.00,,,0.00,WUHU216DAVISVP2,2013-03-07 22:21:00,
2013-03-07 16:26:00,29.8,20.2,30.24,South,180,0.0,15.0,67,0.00,,,0.00,WUHU216DAVISVP2,2013-03-07 22:26:00,
2013-03-07 16:31:00,29.7,19.8,30.24,SSW,196,4.0,12.0,66,0.00,,,0.00,WUHU216DAVISVP2,2013-03-07 22:31:00,
2013-03-07 16:36:00,29.7,20.1,30.24,South,187,1.0,12.0,67,0.00,,,0.00,WUHU216DAVISVP2,2013-03-07 22:36:00,
2013-03-07 16:41:00,29.8,19.9,30.25,South,171,5.0,11.0,66,0.00,,,0.00,WUHU216DAVISVP2,2013-03-07 22:41:00,
2013-03-07 16:47:00,29.6,20.0,30.24,South,185,0.0,11.0,67,0.00,,,0.00,WUHU216DAVISVP2,2013-03-07 22:47:00,
2013-03-07 16:52:00,29.2,19.7,30.24,South,191,2.0,10.0,67,0.00,,,0.00,WUHU216DAVISVP2,2013-03-07 22:52:00,
2013-03-07 16:57:00,28.9,19.7,30.23,SSW,198,7.0,11.0,68,0.00,,,0.00,WUHU216DAVISVP2,2013-03-07 22:57:00,
2013-03-07 17:02:00,28.5,19.7,30.23,South,178,1.0,13.0,69,0.00,,,0.00,WUHU216DAVISVP2,2013-03-07 23:02:00,
2013-03-07 17:07:00,28.3,19.5,30.24,South,190,0.0,13.0,69,0.00,,,0.00,WUHU216DAVISVP2,2013-03-07 23:07:00,
2013-03-07 17:12:00,28.2,19.7,30.24,SSW,202,4.0,7.0,70,0.00,,,0.00,WUHU216DAVISVP2,2013-03-07 23:12:00,
2013-03-07 17:17:00,27.9,19.1,30.24,South,178,5.0,14.0,69,0.00,,,0.00,WUHU216DAVISVP2,2013-03-07 23:17:00,
2013-03-07 17:22:00,27.7,18.9,30.25,South,170,3.0,14.0,69,0.00,,,0.00,WUHU216DAVISVP2,2013-03-07 23:22:00,
2013-03-07 17:27:00,27.6,18.8,30.25,SSE,149,6.0,10.0,69,0.00,,,0.00,WUHU216DAVISVP2,2013-03-07 23:27:00,
2013-03-07 17:32:00,27.4,18.6,30.24,SE,146,3.0,13.0,69,0.00,,,0.00,WUHU216DAVISVP2,2013-03-07 23:32:00,
2013-03-07 17:37:00,27.1,18.3,30.24,South,187,3.0,13.0,69,0.00,,,0.00,WUHU216DAVISVP2,2013-03-07 23:37:00,
2013-03-07 17:42:00,26.8,18.4,30.24,SSE,157,3.0,9.0,70,0.00,,,0.00,WUHU216DAVISVP2,2013-03-07 23:42:00,
2013-03-07 17:47:00,26.6,18.2,30.24,South,176,4.0,11.0,70,0.00,,,0.00,WUHU216DAVISVP2,2013-03-07 23:47:00,
2013-03-07 17:52:00,26.4,18.0,30.24,SSE,153,2.0,11.0,70,0.00,,,0.00,WUHU216DAVISVP2,2013-03-07 23:52:00,
2013-03-07 17:57:00,26.2,17.8,30.24,SSW,193,1.0,12.0,70,0.00,,,0.00,WUHU216DAVISVP2,2013-03-07 23:57:00,
2013-03-07 18:02:00,26.1,17.7,30.24,SSE,149,12.0,19.0,70,0.00,,,0.00,WUHU216DAVISVP2,2013-03-08 00:02:00,
2013-03-07 18:07:00,26.1,17.7,30.24,South,186,2.0,19.0,70,0.00,,,0.00,WUHU216DAVISVP2,2013-03-08 00:07:00,
2013-03-07 18:12:00,26.1,17.7,30.25,South,190,2.0,16.0,70,0.00,,,0.00,WUHU216DAVISVP2,2013-03-08 00:12:00,
2013-03-07 18:17:00,26.0,17.6,30.25,South,180,0.0,15.0,70,0.00,,,0.00,WUHU216DAVISVP2,2013-03-08 00:17:00,
2013-03-07 18:22:00,25.8,17.4,30.25,South,175,4.0,15.0,70,0.00,,,0.00,WUHU216DAVISVP2,2013-03-08 00:22:00,
2013-03-07 18:27:00,25.7,17.3,30.26,SSE,163,2.0,13.0,70,0.00,,,0.00,WUHU216DAVISVP2,2013-03-08 00:27:00,
2013-03-07 18:32:00,25.6,17.2,30.25,South,182,14.0,14.0,70,0.00,,,0.00,WUHU216DAVISVP2,2013-03-08 00:32:00,
2013-03-07 18:37:00,25.4,17.0,30.25,South,188,4.0,14.0,70,0.00,,,0.00,WUHU216DAVISVP2,2013-03-08 00:37:00,
2013-03-07 18:42:00,25.4,17.0,30.25,SSE,165,0.0,14.0,70,0.00,,,0.00,WUHU216DAVISVP2,2013-03-08 00:42:00,
2013-03-07 18:47:00,25.3,16.9,30.25,SE,144,3.0,13.0,70,0.00,,,0.00,WUHU216DAVISVP2,2013-03-08 00:47:00,
2013-03-07 18:52:00,25.3,17.3,30.25,SSE,153,0.0,16.0,71,0.00,,,0.00,WUHU216DAVISVP2,2013-03-08 00:52:00,
2013-03-07 18:57:00,25.2,17.2,30.25,South,178,2.0,16.0,71,0.00,,,0.00,WUHU216DAVISVP2,2013-03-08 00:57:00,
2013-03-07 19:02:00,25.1,17.1,30.25,South,184,1.0,11.0,71,0.00,,,0.00,WUHU216DAVISVP2,2013-03-08 01:02:00,
2013-03-07 19:07:00,25.0,17.0,30.25,SSE,167,2.0,11.0,71,0.00,,,0.00,WUHU216DAVISVP2,2013-03-08 01:07:00,
2013-03-07 19:12:00,24.9,17.2,30.25,South,184,0.0,10.0,72,0.00,,,0.00,WUHU216DAVISVP2,2013-03-08 01:12:00,
2013-03-07 19:17:00,24.7,17.0,30.26,SSE,160,4.0,9.0,72,0.00,,,0.00,WUHU216DAVISVP2,2013-03-08 01:17:00,
2013-03-07 19:22:00,24.6,16.9,30.26,South,172,0.0,9.0,72,0.00,,,0.00,WUHU216DAVISVP2,2013-03-08 01:22:00,
2013-03-07 19:27:00,24.5,16.8,30.26,SSE,159,6.0,7.0,72,0.00,,,0.00,WUHU216DAVISVP2,2013-03-08 01:27:00,
2013-03-07 19:32:00,24.4,17.0,30.26,SSE,159,2.0,11.0,73,0.00,,,0.00,WUHU216DAVISVP2,2013-03-08 01:32:00,
2013-03-07 19:37:00,24.3,16.9,30.25,SSE,164,0.0,11.0,73,0.00,,,0.00,WUHU216DAVISVP2,2013-03-08 01:37:00,
2013-03-07 19:42:00,24.3,16.9,30.25,SSE,166,2.0,11.0,73,0.00,,,0.00,WUHU216DAVISVP2,2013-03-08 01:42:00,
2013-03-07 19:47:00,24.3,17.2,30.25,SSE,158,0.0,11.0,74,0.00,,,0.00,WUHU216DAVISVP2,2013-03-08 01:47:00,
2013-03-07 19:52:00,24.3,17.2,30.25,SSE,167,1.0,10.0,74,0.00,,,0.00,WUHU216DAVISVP2,2013-03-08 01:52:00,
2013-03-07 19:57:00,24.4,17.3,30.25,SSE,161,5.0,9.0,74,0.00,,,0.00,WUHU216DAVISVP2,2013-03-08 01:57:00,
2013-03-07 20:02:00,24.4,17.3,30.25,SSE,158,0.0,9.0,74,0.00,,,0.00,WUHU216DAVISVP2,2013-03-08 02:02:00,
2013-03-07 20:07:00,24.5,17.4,30.25,South,184,0.0,9.0,74,0.00,,,0.00,WUHU216DAVISVP2,2013-03-08 02:07:00,
2013-03-07 20:12:00,24.5,17.4,30.26,SSE,161,0.0,6.0,74,0.00,,,0.00,WUHU216DAVISVP2,2013-03-08 02:12:00,
2013-03-07 20:17:00,24.5,17.4,30.25,SSE,160,0.0,6.0,74,0.00,,,0.00,WUHU216DAVISVP2,2013-03-08 02:17:00,
2013-03-07 20:22:00,24.5,17.7,30.25,SSE,156,2.0,7.0,75,0.00,,,0.00,WUHU216DAVISVP2,2013-03-08 02:22:00,
2013-03-07 20:27:00,24.5,17.7,30.25,South,186,3.0,9.0,75,0.00,,,0.00,WUHU216DAVISVP2,2013-03-08 02:27:00,
2013-03-07 20:32:00,24.5,17.4,30.25,South,175,0.0,9.0,74,0.00,,,0.00,WUHU216DAVISVP2,2013-03-08 02:32:00,
2013-03-07 20:37:00,24.4,17.3,30.25,South,173,0.0,7.0,74,0.00,,,0.00,WUHU216DAVISVP2,2013-03-08 02:37:00,
2013-03-07 20:42:00,24.4,17.3,30.25,SSE,157,0.0,7.0,74,0.00,,,0.00,WUHU216DAVISVP2,2013-03-08 02:42:00,
2013-03-07 20:47:00,24.4,17.3,30.25,SSE,161,5.0,7.0,74,0.00,,,0.00,WUHU216DAVISVP2,2013-03-08 02:47:00,
2013-03-07 20:52:00,24.3,17.2,30.25,South,183,0.0,7.0,74,0.00,,,0.00,WUHU216DAVISVP2,2013-03-08 02:52:00,
2013-03-07 20:57:00,24.3,17.2,30.25,South,180,0.0,6.0,74,0.00,,,0.00,WUHU216DAVISVP2,2013-03-08 02:57:00,
2013-03-07 21:02:00,24.3,17.5,30.25,South,178,3.0,6.0,75,0.00,,,0.00,WUHU216DAVISVP2,2013-03-08 03:02:00,
2013-03-07 21:07:00,24.3,17.5,30.25,SSW,194,0.0,7.0,75,0.00,,,0.00,WUHU216DAVISVP2,2013-03-08 03:07:00,
2013-03-07 21:12:00,24.3,17.2,30.26,South,191,2.0,7.0,74,0.00,,,0.00,WUHU216DAVISVP2,2013-03-08 03:12:00,
2013-03-07 21:17:00,24.2,17.1,30.25,SSE,151,3.0,11.0,74,0.00,,,0.00,WUHU216DAVISVP2,2013-03-08 03:17:00,
2013-03-07 21:22:00,24.2,17.1,30.25,South,175,1.0,11.0,74,0.00,,,0.00,WUHU216DAVISVP2,2013-03-08 03:22:00,
2013-03-07 21:27:00,24.2,17.1,30.25,SSE,166,0.0,7.0,74,0.00,,,0.00,WUHU216DAVISVP2,2013-03-08 03:27:00,
2013-03-07 21:33:00,24.3,17.2,30.25,SSE,166,0.0,9.0,74,0.00,,,0.00,WUHU216DAVISVP2,2013-03-08 03:33:00,
2013-03-07 21:38:00,24.3,17.2,30.26,South,175,0.0,9.0,74,0.00,,,0.00,WUHU216DAVISVP2,2013-03-08 03:38:00,
2013-03-07 21:43:00,24.3,17.2,30.26,SSE,155,5.0,7.0,74,0.00,,,0.00,WUHU216DAVISVP2,2013-03-08 03:43:00,
2013-03-07 21:48:00,24.4,17.3,30.26,South,178,0.0,12.0,74,0.00,,,0.00,WUHU216DAVISVP2,2013-03-08 03:48:00,
2013-03-07 21:53:00,24.4,17.3,30.26,SSE,165,1.0,12.0,74,0.00,,,0.00,WUHU216DAVISVP2,2013-03-08 03:53:00,
2013-03-07 21:58:00,24.4,17.3,30.26,South,173,2.0,7.0,74,0.00,,,0.00,WUHU216DAVISVP2,2013-03-08 03:58:00,
2013-03-07 22:03:00,24.4,17.3,30.26,SE,130,4.0,7.0,74,0.00,,,0.00,WUHU216DAVISVP2,2013-03-08 04:03:00,
2013-03-07 22:08:00,24.3,17.2,30.26,SSE,163,1.0,11.0,74,0.00,,,0.00,WUHU216DAVISVP2,2013-03-08 04:08:00,
2013-03-07 22:13:00,24.3,17.2,30.26,South,180,2.0,11.0,74,0.00,,,0.00,WUHU216DAVISVP2,2013-03-08 04:13:00,
2013-03-07 22:18:00,24.3,17.2,30.26,South,175,0.0,7.0,74,0.00,,,0.00,WUHU216DAVISVP2,2013-03-08 04:18:00,
2013-03-07 22:23:00,24.4,17.3,30.26,SSW,194,0.0,7.0,74,0.00,,,0.00,WUHU216DAVISVP2,2013-03-08 04:23:00,
2013-03-07 22:28:00,24.4,17.3,30.26,South,186,3.0,12.0,74,0.00,,,0.00,WUHU216DAVISVP2,2013-03-08 04:28:00,
2013-03-07 22:33:00,24.4,17.3,30.27,SSE,168,0.0,12.0,74,0.00,,,0.00,WUHU216DAVISVP2,2013-03-08 04:33:00,
2013-03-07 22:38:00,24.5,17.4,30.27,South,170,0.0,15.0,74,0.00,,,0.00,WUHU216DAVISVP2,2013-03-08 04:38:00,
2013-03-07 22:43:00,24.5,17.4,30.27,South,173,3.0,15.0,74,0.00,,,0.00,WUHU216DAVISVP2,2013-03-08 04:43:00,
2013-03-07 22:48:00,24.5,17.4,30.27,South,172,1.0,10.0,74,0.00,,,0.00,WUHU216DAVISVP2,2013-03-08 04:48:00,
2013-03-07 22:53:00,24.6,17.5,30.27,SSE,168,2.0,10.0,74,0.00,,,0.00,WUHU216DAVISVP2,2013-03-08 04:53:00,
2013-03-07 22:58:00,24.5,17.4,30.27,SSE,149,0.0,13.0,74,0.00,,,0.00,WUHU216DAVISVP2,2013-03-08 04:58:00,
2013-03-07 23:00:00,24.5,17.4,30.27,SSE,160,4.0,13.0,74,0.00,,,0.00,WUHU216DAVISVP2,2013-03-08 05:00:00,
2013-03-07 23:04:00,24.5,17.4,30.27,South,179,0.0,13.0,74,0.00,,,0.00,WUHU216DAVISVP2,2013-03-08 05:04:00,
2013-03-07 23:09:00,24.5,17.4,30.27,SSE,158,4.0,10.0,74,0.00,,,0.00,WUHU216DAVISVP2,2013-03-08 05:09:00,
2013-03-07 23:14:00,24.4,17.3,30.27,SSE,163,2.0,10.0,74,0.00,,,0.00,WUHU216DAVISVP2,2013-03-08 05:14:00,
2013-03-07 23:19:00,24.4,17.3,30.27,South,169,1.0,9.0,74,0.00,,,0.00,WUHU216DAVISVP2,2013-03-08 05:19:00,
2013-03-07 23:24:00,24.3,17.2,30.27,SSE,155,4.0,7.0,74,0.00,,,0.00,WUHU216DAVISVP2,2013-03-08 05:24:00,
2013-03-07 23:29:00,24.3,17.2,30.27,SSE,161,0.0,7.0,74,0.00,,,0.00,WUHU216DAVISVP2,2013-03-08 05:29:00,
2013-03-07 23:34:00,24.3,17.2,30.27,South,191,5.0,7.0,74,0.00,,,0.00,WUHU216DAVISVP2,2013-03-08 05:34:00,
2013-03-07 23:39:00,24.3,17.2,30.26,South,178,0.0,10.0,74,0.00,,,0.00,WUHU216DAVISVP2,2013-03-08 05:39:00,
2013-03-07 23:44:00,24.2,17.5,30.26,South,173,0.0,10.0,75,0.00,,,0.00,WUHU216DAVISVP2,2013-03-08 05:44:00,
2013-03-07 23:49:00,24.3,17.5,30.27,South,175,3.0,7.0,75,0.00,,,0.00,WUHU216DAVISVP2,2013-03-08 05:49:00,
2013-03-07 23:54:00,24.2,17.5,30.27,SSE,165,1.0,10.0,75,0.00,,,0.00,WUHU216DAVISVP2,2013-03-08 05:54:00,
2013-03-07 23:59:00,24.2,17.5,30.26,SSE,153,0.0,10.0,75,0.00,,,0.00,WUHU216DAVISVP2,2013-03-08 05:59:00,